Latest Weather Observations for Holmes Reef

IDQ60801

Issued at 1:32 am EST Monday 27 April 2015 (issued every 30 minutes, with the page automatically refreshed every 10 minutes)

About weather observations | Map of weather stations | Latest weather observations for QLD | Other Formats
Station Details ID: 200732 Name: HOLMES REEF Lat: -16.47 Lon: 147.87 Height: 1.9 m
Data from the previous 72 hours. | See also: Recent months at Holmes Reef
Date/Time
EST
Temp
°C
App
Temp
°C
Dew
Point
Rel
Hum
%
Delta-T
°C
Wind Press
QNH
hPa
Press
MSL
hPa
Rain
since 9 am
mm
Dir
 
Spd
km/h
Gust
km/h
Spd
kts
Gust
kts
27/01:30am 26.2 - - - - ESE 30 33 16 18 1013.8 - -
27/01:15am 26.1 - - - - ESE 30 32 16 17 1014.0 1013.7 -
27/01:00am 26.1 - - - - ESE 30 35 16 19 1014.1 - -
27/12:30am 26.0 - - - - SE 30 33 16 18 1014.2 - -
27/12:15am 26.2 - - - - SE 30 - 16 - - 1014.0 -
27/12:00am 26.1 - - - - SE 30 35 16 19 1014.4 - -
 
Date/Time
EST
Temp
°C
App
Temp
°C
Dew
Point
Rel
Hum
%
Delta-T
°C
Wind Press
QNH
hPa
Press
MSL
hPa
Rain
since 9 am
mm
Dir
 
Spd
km/h
Gust
km/h
Spd
kts
Gust
kts
26/11:30pm 26.1 - - - - SE 32 37 17 20 1014.6 - -
26/11:15pm 26.2 - - - - SE 32 - 17 - - 1014.4 -
26/11:00pm 26.1 - - - - SE 33 39 18 21 1014.7 - -
26/10:30pm 26.2 - - - - SE 33 39 18 21 1014.8 - -
26/10:15pm 26.2 - - - - SE 33 - 18 - - 1014.6 -
26/10:00pm 26.2 - - - - SE 35 41 19 22 1014.8 - -
26/09:30pm 26.2 - - - - SE 35 41 19 22 1015.0 - -
26/09:15pm 26.3 - - - - SE 35 - 19 - - 1014.6 -
26/09:00pm 26.4 - - - - SE 35 39 19 21 1014.7 - -
26/08:30pm 26.4 - - - - SE 33 39 18 21 1014.4 - -
26/08:15pm 26.4 - - - - SE 35 - 19 - - 1014.0 -
26/08:00pm 26.5 - - - - SE 35 43 19 23 1014.0 - -
26/07:30pm 26.5 - - - - SE 35 43 19 23 1013.6 - -
26/07:15pm 26.5 - - - - SE 35 - 19 - - 1013.1 -
26/07:00pm 26.6 - - - - SE 37 41 20 22 1013.2 - -
26/06:30pm 26.7 - - - - SE 37 43 20 23 1012.9 - -
26/06:15pm 26.7 - - - - SE 37 - 20 - - 1012.4 -
26/06:00pm 26.8 - - - - SE 37 44 20 24 1012.5 - -
26/05:30pm 26.9 - - - - SE 39 44 21 24 1012.4 - -
26/05:15pm 27.0 - - - - SE 39 - 21 - - 1011.9 -
26/05:00pm 27.0 - - - - SE 39 43 21 23 1012.1 - -
26/04:30pm 27.1 - - - - SSE 37 46 20 25 1012.0 - -
26/04:15pm 27.1 - - - - SSE 35 - 19 - - 1011.6 -
26/04:00pm 27.0 - - - - SSE 37 44 20 24 1011.9 - -
26/03:30pm 27.1 - - - - SSE 37 41 20 22 1011.8 - -
26/03:15pm 27.2 - - - - SSE 35 - 19 - - 1011.5 -
26/03:00pm 27.3 - - - - SSE 33 41 18 22 1011.7 - -
26/02:30pm 27.1 - - - - SSE 33 41 18 22 1011.8 - -
26/02:15pm 27.2 - - - - SSE 35 - 19 - - 1011.5 -
26/02:00pm 26.8 - - - - SSE 22 30 12 16 1011.9 - -
26/01:30pm 26.8 - - - - SSE 20 24 11 13 1012.1 - -
26/01:15pm 26.6 - - - - SSE 20 - 11 - - 1011.8 -
26/01:00pm 26.5 - - - - SE 17 22 9 12 1012.2 - -
26/12:30pm 26.6 - - - - SE 19 22 10 12 1012.5 - -
26/12:15pm 26.6 - - - - SE 20 - 11 - - 1012.4 -
26/12:00pm 26.7 - - - - SSE 19 22 10 12 1012.8 - -
26/11:30am 26.7 - - - - SSE 17 20 9 11 1013.2 - -
26/11:15am 26.8 - - - - SSE 17 - 9 - - 1013.0 -
26/11:00am 26.7 - - - - SSE 17 20 9 11 1013.5 - -
26/10:30am 26.6 - - - - SSE 19 24 10 13 1013.8 - -
26/10:15am 26.6 - - - - S 19 - 10 - - 1013.6 -
26/10:00am 26.5 - - - - S 19 24 10 13 1014.1 - -
26/09:30am 26.5 - - - - S 17 20 9 11 1014.1 - -
26/09:15am 26.4 - - - - S 19 - 10 - - 1013.7 -
26/09:00am 26.4 - - - - SSE 19 22 10 12 1013.9 - -
26/08:30am 26.5 - - - - SSE 13 17 7 9 1013.7 - -
26/08:15am 26.4 - - - - SSE 13 - 7 - - 1013.3 -
26/08:00am 26.5 - - - - S 11 17 6 9 1013.6 - -
26/07:30am 26.3 - - - - SSE 13 15 7 8 1013.5 - -
26/07:00am 25.9 - - - - SSE 13 17 7 9 1013.1 - -
26/06:30am 25.5 - - - - SE 13 15 7 8 1012.8 - -
26/06:15am 25.5 - - - - SE 11 - 6 - - 1012.3 -
26/06:00am 25.4 - - - - ESE 11 13 6 7 1012.3 - -
26/05:30am 25.4 - - - - E 13 15 7 8 1011.9 - -
26/05:00am 25.3 - - - - E 13 15 7 8 1011.6 - -
26/04:30am 25.3 - - - - E 11 13 6 7 1011.2 - -
26/04:15am 25.3 - - - - ESE 11 - 6 - - 1010.9 -
26/04:00am 25.3 - - - - ESE 11 13 6 7 1011.1 - -
26/03:30am 25.4 - - - - E 13 17 7 9 1011.0 - -
26/03:00am 25.4 - - - - E 13 15 7 8 1010.9 - -
26/02:30am 25.3 - - - - ESE 11 15 6 8 1010.9 - -
26/02:15am 25.4 - - - - E 11 - 6 - - 1010.5 -
26/02:00am 25.4 - - - - ESE 11 13 6 7 1010.8 - -
26/01:30am 25.5 - - - - SE 11 15 6 8 1011.2 - -
26/01:15am 25.5 - - - - ESE 9 - 5 - - 1011.1 -
26/01:00am 25.5 - - - - SE 9 11 5 6 1011.6 - -
26/12:30am 25.5 - - - - SE 9 11 5 6 1012.1 - -
26/12:15am 25.6 - - - - SE 9 - 5 - - 1012.0 -
26/12:00am 25.6 - - - - SE 9 9 5 5 1012.3 - -
 
Date/Time
EST
Temp
°C
App
Temp
°C
Dew
Point
Rel
Hum
%
Delta-T
°C
Wind Press
QNH
hPa
Press
MSL
hPa
Rain
since 9 am
mm
Dir
 
Spd
km/h
Gust
km/h
Spd
kts
Gust
kts
25/11:30pm 25.6 - - - - SSE 11 13 6 7 1012.5 - -
25/11:15pm 25.6 - - - - SE 11 - 6 - - 1012.2 -
25/11:00pm 25.6 - - - - SSE 13 15 7 8 1012.5 - -
25/10:30pm 25.7 - - - - SSE 13 15 7 8 1012.8 - -
25/10:15pm 25.7 - - - - S 13 - 7 - - 1012.6 -
25/10:00pm 25.7 - - - - SSE 15 19 8 10 1013.0 - -
25/09:30pm 25.7 - - - - SSE 13 17 7 9 1013.1 - -
25/09:15pm 25.7 - - - - S 15 - 8 - - 1012.9 -
25/09:00pm 25.8 - - - - S 15 19 8 10 1013.2 - -
25/08:30pm 25.8 - - - - S 15 19 8 10 1013.1 - -
25/08:15pm 25.9 - - - - SSE 13 - 7 - - 1012.6 -
25/08:00pm 25.8 - - - - SSE 15 17 8 9 1012.7 - -
25/07:30pm 25.8 - - - - SSE 17 20 9 11 1012.3 - -
25/07:15pm 25.8 - - - - S 15 - 8 - - 1011.7 -
25/07:00pm 25.8 - - - - S 17 20 9 11 1011.8 - -
25/06:30pm 25.9 - - - - S 17 20 9 11 1011.4 - -
25/06:15pm 25.9 - - - - S 17 - 9 - - 1011.0 -
25/06:00pm 26.0 - - - - S 15 20 8 11 1011.3 - -
25/05:30pm 26.6 - - - - S 15 17 8 9 1011.2 - -
25/05:15pm 26.8 - - - - S 13 - 7 - - 1010.8 -
25/05:00pm 27.0 - - - - S 13 17 7 9 1010.9 - -
25/04:30pm 26.9 - - - - S 15 17 8 9 1010.5 - -
25/04:15pm 27.0 - - - - S 13 - 7 - - 1010.0 -
25/04:00pm 27.1 - - - - S 11 15 6 8 1010.2 - -
25/03:30pm 27.2 - - - - S 11 15 6 8 1009.9 - -
25/03:15pm 27.1 - - - - S 11 - 6 - - 1009.6 -
25/03:00pm 27.0 - - - - S 11 15 6 8 1009.9 - -
25/02:30pm 27.2 - - - - S 11 13 6 7 1010.0 - -
25/02:15pm 27.1 - - - - S 11 - 6 - - 1009.8 -
25/02:00pm 27.2 - - - - S 11 15 6 8 1010.3 - -
25/01:30pm 27.1 - - - - S 9 15 5 8 1010.6 - -
25/01:15pm 27.0 - - - - SSE 9 - 5 - - 1010.4 -
25/01:00pm 27.1 - - - - SSE 9 13 5 7 1010.8 - -
25/12:30pm 27.1 - - - - SSE 11 15 6 8 1010.9 - -
25/12:15pm 26.8 - - - - SSE 9 - 5 - - 1010.7 -
25/12:00pm 26.9 - - - - SSE 11 15 6 8 1011.1 - -
25/11:30am 26.8 - - - - SSE 9 13 5 7 1011.5 - -
25/11:15am 26.9 - - - - SSE 9 - 5 - - 1011.4 -
25/11:00am 26.4 - - - - SSE 9 13 5 7 1011.9 - -
25/10:30am 26.3 - - - - SSE 11 15 6 8 1012.1 - -
25/10:15am 26.1 - - - - SE 11 - 6 - - 1011.8 -
25/10:00am 26.3 - - - - SE 13 15 7 8 1012.1 - -
25/09:30am 26.3 - - - - SE 13 15 7 8 1012.1 - -
25/09:15am 25.9 - - - - SE 15 - 8 - - 1011.7 -
25/09:00am 26.3 - - - - SE 13 17 7 9 1011.9 - -
25/08:30am 25.8 - - - - SE 13 15 7 8 1011.9 - -
25/08:00am 25.8 - - - - SE 13 15 7 8 1011.7 - -
25/07:30am 25.8 - - - - SE 13 17 7 9 1011.6 - -
25/07:15am 25.6 - - - - ESE 13 - 7 - - 1011.0 -
25/07:00am 25.5 - - - - ESE 13 17 7 9 1011.1 - -
25/06:30am 25.3 - - - - ESE 13 15 7 8 1010.9 - -
25/06:15am 25.1 - - - - ESE 13 - 7 - - 1010.4 -
25/06:00am 25.1 - - - - E 15 19 8 10 1010.6 - -
25/05:30am 25.2 - - - - E 15 19 8 10 1010.2 - -
25/05:15am 25.2 - - - - E 17 - 9 - - 1009.8 -
25/05:00am 25.2 - - - - E 15 19 8 10 1010.0 - -
25/04:30am 25.1 - - - - E 15 19 8 10 1009.8 - -
25/04:15am 25.2 - - - - E 17 - 9 - - 1009.5 -
25/04:00am 25.1 - - - - ESE 17 19 9 10 1009.7 - -
25/03:30am 25.1 - - - - E 15 19 8 10 1009.6 - -
25/03:15am 25.1 - - - - E 15 - 8 - - 1009.4 -
25/03:00am 25.1 - - - - ESE 15 19 8 10 1009.7 - -
25/02:30am 25.1 - - - - ESE 15 19 8 10 1009.9 - -
25/02:15am 25.1 - - - - E 13 - 7 - - 1009.6 -
25/02:00am 25.1 - - - - E 13 15 7 8 1009.9 - -
25/01:30am 25.2 - - - - E 15 19 8 10 1010.2 - -
25/01:15am 25.2 - - - - ESE 15 - 8 - - 1009.9 -
25/01:00am 25.3 - - - - ESE 17 20 9 11 1010.2 - -
25/12:30am 25.4 - - - - ESE 17 20 9 11 1010.4 - -
25/12:15am 25.3 - - - - ESE 17 - 9 - - 1010.2 -
25/12:00am 25.4 - - - - E 17 20 9 11 1010.7 - -
 
Date/Time
EST
Temp
°C
App
Temp
°C
Dew
Point
Rel
Hum
%
Delta-T
°C
Wind Press
QNH
hPa
Press
MSL
hPa
Rain
since 9 am
mm
Dir
 
Spd
km/h
Gust
km/h
Spd
kts
Gust
kts
24/11:30pm 25.3 - - - - E 17 20 9 11 1010.7 - -
24/11:15pm 25.4 - - - - E 17 - 9 - - 1010.4 -
24/11:00pm 25.4 - - - - E 17 20 9 11 1010.8 - -
24/10:30pm 25.4 - - - - E 17 20 9 11 1011.0 - -
24/10:00pm 25.4 - - - - E 15 17 8 9 1011.2 - -
24/09:30pm 25.5 - - - - ESE 15 19 8 10 1011.4 - -
24/09:15pm 25.5 - - - - ESE 15 - 8 - - 1011.1 -
24/09:00pm 25.5 - - - - ESE 13 15 7 8 1011.5 - -
24/08:30pm 25.5 - - - - SE 13 15 7 8 1011.3 - -
24/08:15pm 25.5 - - - - SE 11 - 6 - - 1011.0 -
24/08:00pm 25.5 - - - - SE 13 17 7 9 1011.2 - -
24/07:30pm 25.5 - - - - SSE 13 17 7 9 1010.7 - -
24/07:15pm 25.5 - - - - SE 13 - 7 - - 1010.1 -
24/07:00pm 25.5 - - - - SSE 13 17 7 9 1010.2 - -
24/06:30pm 25.5 - - - - SE 11 17 6 9 1009.9 - -
24/06:15pm 25.5 - - - - SSE 13 - 7 - - 1009.4 -
24/06:00pm 25.6 - - - - SSE 15 20 8 11 1009.8 - -
24/05:30pm 26.1 - - - - S 15 17 8 9 1009.6 - -
24/05:15pm 26.3 - - - - SSE 15 - 8 - - 1009.3 -
24/05:00pm 26.4 - - - - S 15 19 8 10 1009.5 - -
24/04:30pm 26.5 - - - - S 15 19 8 10 1009.2 - -
24/04:15pm 26.5 - - - - S 15 - 8 - - 1008.8 -
24/04:00pm 26.5 - - - - S 15 20 8 11 1009.0 - -
24/03:30pm 26.5 - - - - S 17 19 9 10 1009.0 - -
24/03:15pm 27.0 - - - - S 15 - 8 - - 1008.8 -
24/03:00pm 26.7 - - - - S 15 20 8 11 1009.2 - -
24/02:30pm 26.7 - - - - S 17 20 9 11 1009.4 - -
24/02:15pm 26.5 - - - - S 17 - 9 - - 1009.2 -
24/02:00pm 26.5 - - - - S 17 20 9 11 1009.5 - -
24/01:30pm 26.5 - - - - S 19 22 10 12 1009.7 - -
24/01:15pm 26.3 - - - - S 17 - 9 - - 1009.4 -
24/01:00pm 26.5 - - - - S 17 22 9 12 1009.8 - -
24/12:30pm 26.5 - - - - S 15 20 8 11 1010.3 - -
24/12:15pm 26.8 - - - - S 13 - 7 - - 1010.2 -
24/12:00pm 26.6 - - - - S 13 19 7 10 1010.7 - -
24/11:30am 26.4 - - - - S 17 20 9 11 1011.0 - -
24/11:15am 26.4 - - - - S 17 - 9 - - 1010.8 -
24/11:00am 26.4 - - - - SSE 15 19 8 10 1011.3 - -
24/10:30am 26.4 - - - - SSE 13 17 7 9 1011.7 - -
24/10:15am 26.0 - - - - SE 15 - 8 - - 1011.4 -
24/10:00am 25.9 - - - - SE 13 15 7 8 1011.8 - -
24/09:30am 25.7 - - - - SE 13 17 7 9 1011.8 - -
24/09:15am 25.7 - - - - SE 17 - 9 - - 1011.4 -
24/09:00am 25.9 - - - - SE 15 20 8 11 1011.5 - -
24/08:30am 25.8 - - - - SE 15 19 8 10 1011.4 - -
24/08:15am 26.0 - - - - SSE 17 - 9 - - 1011.1 -
24/08:00am 26.0 - - - - SE 13 17 7 9 1011.5 - -
24/07:30am 25.7 - - - - SE 17 20 9 11 1011.4 - -
24/07:15am 25.9 - - - - SE 15 - 8 - - 1010.8 -
24/07:00am 25.6 - - - - SE 17 20 9 11 1011.0 - -
24/06:30am 25.3 - - - - SE 15 20 8 11 1010.6 - -
24/06:15am 25.1 - - - - SE 17 - 9 - - 1010.2 -
24/06:00am 25.2 - - - - E 13 17 7 9 1010.5 - -
24/05:30am 25.1 - - - - ESE 15 19 8 10 1010.2 - -
24/05:15am 25.2 - - - - ESE 19 - 10 - - 1009.7 -
24/05:00am 25.2 - - - - ESE 17 20 9 11 1010.0 - -
24/04:30am 25.2 - - - - ESE 19 22 10 12 1009.7 - -
24/04:15am 25.2 - - - - ESE 19 - 10 - - 1009.5 -
24/04:00am 25.2 - - - - ESE 19 22 10 12 1009.9 - -
24/03:30am 25.2 - - - - SE 19 20 10 11 1010.0 - -
24/03:15am 25.1 - - - - ESE 19 - 10 - - 1009.7 -
24/03:00am 25.2 - - - - ESE 19 22 10 12 1009.9 - -
24/02:30am 25.1 - - - - ESE 20 28 11 15 1009.8 - -
24/02:15am 25.3 - - - - ESE 22 - 12 - - 1009.6 -
24/02:00am 25.3 - - - - ESE 22 26 12 14 1009.9 - -

Other Formats:

Comma delimited format used in spreadsheet applications
http://www.bom.gov.au/fwo/IDQ60801/IDQ60801.94289.axf

JavaScript Object Notation format (JSON) in row-major order
http://www.bom.gov.au/fwo/IDQ60801/IDQ60801.94289.json